Stormwatcher's Retreat Logo




                  Temp     Hi    Low   Out    Dew  Wind  Wind   Wind    Hi    Hi   Wind   Heat    THW   THSW                Rain  Solar   Solar Hi Solar   UV    UV    Hi     Heat    Cool    In     In    In     In     In   In Air          Wind  Wind    ISS   Arc.
  Date    Time     Out   Temp   Temp   Hum    Pt. Speed   Dir    Run Speed   Dir  Chill  Index  Index  Index   Bar    Rain  Rate   Rad.  Energy    Rad.  Index  Dose   UV     D-D     D-D    Temp   Hum    Dew   Heat    EMC Density     ET   Samp   Tx   Recept  Int.
------------------------------------------------------------------------------------------------------------------------------------------------------------------------------------------------------------------------------------------------------------------------
11/25/20 12:10a   47.5   47.6   46.9    91   45.0   4.0   SSW   0.67   8.0   WSW   46.0   47.7   46.2   43.6  30.094  0.00  0.00     0     0.00      0     0.0  0.00   0.0   0.122   0.000   69.9    49   49.9   68.1   9.05  .0745    0.000   202    7    100.0   10 
11/25/20 12:20a   47.4   47.7   47.4    90   44.6   3.0    SE   0.50   8.0   WSW   46.7   47.6   46.9   44.3  30.094  0.00  0.00     0     0.00      0     0.0  0.00   0.0   0.122   0.000   69.8    49   49.8   68.1   9.05  .0745    0.000   204    7    100.0   10 
11/25/20 12:30a   46.3   47.4   46.3    90   43.5   1.0   SSE   0.17   7.0   ESE   46.3   46.4   46.4   43.7  30.094  0.00  0.00     0     0.00      0     0.0  0.00   0.0   0.130   0.000   69.7    49   49.7   68.0   9.06  .0745    0.000   204    7    100.0   10 
11/25/20 12:40a   45.7   46.3   45.6    91   43.2   2.0    SE   0.33   7.0   ESE   45.7   45.8   45.8   43.1  30.096  0.00  0.00     0     0.00      0     0.0  0.00   0.0   0.134   0.000   69.6    49   49.6   67.9   9.06  .0745    0.000   204    7    100.0   10 
11/25/20 12:50a   45.5   45.8   45.5    90   42.7   2.0    SE   0.33   5.0     S   45.5   45.6   45.6   42.9  30.097  0.00  0.00     0     0.00      0     0.0  0.00   0.0   0.135   0.000   69.6    49   49.6   67.9   9.06  .0745    0.000   203    7    100.0   10 
11/25/20  1:00a   45.4   45.6   45.4    91   42.9   1.0    SE   0.17   4.0    SE   45.4   45.5   45.5   42.8  30.097  0.00  0.00     0     0.00      0     0.0  0.00   0.0   0.136   0.000   69.6    49   49.6   67.9   9.06  .0745    0.000   202    7    100.0   10 
11/25/20  1:10a   47.9   47.9   45.3    91   45.4   8.0     W   1.33  20.0     W   44.0   48.1   44.2   41.7  30.104  0.00  0.00     0     0.00      0     0.0  0.00   0.0   0.119   0.000   69.6    49   49.6   67.9   9.06  .0745    0.000   201    7    100.0   10 
11/25/20  1:20a   48.1   48.2   47.9    85   43.8  13.0   WSW   2.17  25.0     W   41.7   48.1   41.7   39.6  30.107  0.03  0.19     0     0.00      0     0.0  0.00   0.0   0.117   0.000   69.6    49   49.6   67.9   9.06  .0746    0.000   202    7    100.0   10 
11/25/20  1:30a   47.6   48.1   47.6    86   43.6   2.0   SSW   0.33   7.0     W   47.6   47.6   47.6   44.9  30.097  0.01  0.19     0     0.00      0     0.0  0.00   0.0   0.121   0.000   69.7    49   49.7   68.0   9.06  .0745    0.000   203    7    100.0   10 
11/25/20  1:40a   46.0   47.5   46.0    87   42.3   1.0     S   0.17   5.0     S   46.0   46.0   46.0   43.3  30.096  0.00  0.00     0     0.00      0     0.0  0.00   0.0   0.132   0.000   69.7    49   49.7   68.0   9.06  .0745    0.000   203    7    100.0   10 
11/25/20  1:50a   45.2   46.0   45.2    88   41.9   1.0    SE   0.17   4.0   ESE   45.2   45.2   45.2   42.5  30.099  0.00  0.00     0     0.00      0     0.0  0.00   0.0   0.137   0.000   69.6    49   49.6   67.9   9.06  .0745    0.000   204    7    100.0   10 
11/25/20  2:00a   44.9   45.2   44.9    89   41.9   2.0    SE   0.33   5.0   SSE   44.9   45.0   45.0   42.3  30.100  0.00  0.00     0     0.00      0     0.0  0.00   0.0   0.140   0.000   69.6    49   49.6   67.9   9.06  .0745    0.001   202    7    100.0   10 
11/25/20  2:10a   44.7   44.9   44.7    90   41.9   2.0    SE   0.33   4.0    SE   44.7   44.8   44.8   42.1  30.102  0.00  0.00     0     0.00      0     0.0  0.00   0.0   0.141   0.000   69.5    49   49.5   67.9   9.06  .0746    0.000   201    7    100.0   10 
11/25/20  2:20a   44.8   44.8   44.7    90   42.0   2.0    SE   0.33   4.0    SE   44.8   44.9   44.9   42.2  30.106  0.00  0.00     0     0.00      0     0.0  0.00   0.0   0.140   0.000   69.4    49   49.4   67.8   9.06  .0746    0.000   202    7    100.0   10 
11/25/20  2:30a   44.7   44.8   44.7    91   42.2   2.0    SE   0.33   4.0    SE   44.7   44.8   44.8   42.1  30.106  0.00  0.00     0     0.00      0     0.0  0.00   0.0   0.141   0.000   69.4    49   49.4   67.8   9.06  .0746    0.000   204    7    100.0   10 
11/25/20  2:40a   44.7   44.8   44.6    91   42.2   2.0    SE   0.33   7.0     S   44.7   44.8   44.8   42.1  30.114  0.03  0.41     0     0.00      0     0.0  0.00   0.0   0.141   0.000   69.4    49   49.4   67.8   9.06  .0746    0.000   202    7    100.0   10 
11/25/20  2:50a   44.9   44.9   44.6    92   42.7   1.0   ESE   0.17   3.0   ESE   44.9   45.0   45.0   42.3  30.111  0.01  0.30     0     0.00      0     0.0  0.00   0.0   0.140   0.000   69.5    48   48.9   67.8   8.86  .0746    0.000   201    7    100.0   10 
11/25/20  3:00a   44.5   44.9   44.5    92   42.3   2.0   ESE   0.33   6.0   ESE   44.5   44.6   44.6   41.9  30.112  0.00  0.00     0     0.00      0     0.0  0.00   0.0   0.142   0.000   69.5    48   48.9   67.8   8.86  .0746    0.000   202    7    100.0   10 
11/25/20  3:10a   44.6   44.7   44.5    92   42.4   1.0    SE   0.17   3.0    SE   44.6   44.7   44.7   42.0  30.108  0.00  0.00     0     0.00      0     0.0  0.00   0.0   0.142   0.000   69.5    49   49.5   67.9   9.06  .0746    0.000   205    7    100.0   10 
11/25/20  3:20a   44.6   44.7   44.5    92   42.4   2.0    SE   0.33   6.0     S   44.6   44.7   44.7   42.0  30.110  0.00  0.00     0     0.00      0     0.0  0.00   0.0   0.142   0.000   69.5    49   49.5   67.9   9.06  .0746    0.000   203    7    100.0   10 
11/25/20  3:30a   44.5   44.7   44.5    92   42.3   2.0   SSE   0.33   5.0    SE   44.5   44.6   44.6   41.9  30.108  0.00  0.00     0     0.00      0     0.0  0.00   0.0   0.142   0.000   69.4    49   49.4   67.8   9.06  .0746    0.000   203    7    100.0   10 
11/25/20  3:40a   44.5   44.6   44.5    93   42.6   2.0   ESE   0.33   6.0   ESE   44.5   44.7   44.7   42.0  30.110  0.00  0.00     0     0.00      0     0.0  0.00   0.0   0.142   0.000   69.4    48   48.9   67.7   8.86  .0746    0.000   203    7    100.0   10 
11/25/20  3:50a   44.7   44.7   44.5    93   42.8   2.0    SE   0.33   4.0    SE   44.7   44.9   44.9   42.2  30.112  0.00  0.00     0     0.00      0     0.0  0.00   0.0   0.141   0.000   69.3    48   48.8   67.6   8.86  .0746    0.000   202    7    100.0   10 
11/25/20  4:00a   45.1   45.2   44.6    93   43.2   2.0   ESE   0.33   4.0   ESE   45.1   45.3   45.3   42.6  30.111  0.00  0.00     0     0.00      0     0.0  0.00   0.0   0.138   0.000   69.2    48   48.7   67.5   8.87  .0746    0.000   202    7    100.0   10 
11/25/20  4:10a   45.5   45.5   45.1    93   43.6   2.0    SE   0.33   7.0    SE   45.5   45.7   45.7   43.0  30.115  0.00  0.00     0     0.00      0     0.0  0.00   0.0   0.135   0.000   69.2    48   48.7   67.5   8.87  .0747    0.000   201    7    100.0   10 
11/25/20  4:20a   45.9   46.0   45.5    94   44.3   2.0    SE   0.33   8.0   SSE   45.9   46.2   46.2   43.6  30.117  0.00  0.00     0     0.00      0     0.0  0.00   0.0   0.133   0.000   69.3    48   48.8   67.6   8.86  .0746    0.000   202    7    100.0   10 
11/25/20  4:30a   50.1   50.1   45.5    90   47.3   9.0    SW   1.50  14.0   WSW   46.0   50.4   46.3   44.0  30.120  0.00  0.00     0     0.00      0     0.0  0.00   0.0   0.103   0.000   69.4    48   48.9   67.7   8.86  .0746    0.000   202    7    100.0   10 
11/25/20  4:40a   50.8   50.9   50.1    86   46.8  14.0   WSW   2.33  17.0     W   44.5   50.9   44.6   42.6  30.119  0.00  0.00     0     0.00      0     0.0  0.00   0.0   0.099   0.000   69.4    48   48.9   67.7   8.86  .0746    0.000   204    7    100.0   10 
11/25/20  4:50a   51.0   51.1   50.8    87   47.3  13.0   WSW   2.17  17.0     W   45.0   51.1   45.1   43.1  30.121  0.00  0.00     0     0.00      0     0.0  0.00   0.0   0.097   0.000   69.4    48   48.9   67.7   8.86  .0746    0.000   200    7    100.0   10 
11/25/20  5:00a   49.9   51.0   49.9    86   45.9  12.0    SW   2.00  16.0    SW   44.2   50.0   44.3   42.2  30.123  0.00  0.00     0     0.00      0     0.0  0.00   0.0   0.105   0.000   69.3    48   48.8   67.6   8.86  .0747    0.001   200    7    100.0   10 
11/25/20  5:10a   50.0   50.0   49.8    87   46.3   8.0    SW   1.33  13.0    SW   46.5   50.2   46.7   44.2  30.124  0.00  0.00     0     0.00      0     0.0  0.00   0.0   0.104   0.000   69.3    49   49.3   67.7   9.06  .0746    0.000   205    7    100.0   10 
11/25/20  5:20a   50.2   50.3   49.9    87   46.5   8.0    SW   1.33  13.0    SW   46.7   50.4   46.9   44.4  30.125  0.00  0.00     0     0.00      0     0.0  0.00   0.0   0.103   0.000   69.1    49   49.1   67.6   9.07  .0747    0.000   202    7    100.0   10 
11/25/20  5:30a   50.7   50.7   50.2    87   47.0   9.0    SW   1.50  14.0   WSW   46.7   50.8   46.8   44.4  30.128  0.00  0.00     0     0.00      0     0.0  0.00   0.0   0.099   0.000   69.0    49   49.0   67.5   9.07  .0747    0.000   203    7    100.0   10 
11/25/20  5:40a   51.0   51.0   50.7    85   46.6  11.0   WSW   1.83  18.0   WSW   45.9   51.0   45.9   43.7  30.126  0.00  0.00     0     0.00      0     0.0  0.00   0.0   0.097   0.000   69.0    49   49.0   67.5   9.07  .0747    0.000   202    7    100.0   10 
11/25/20  5:50a   51.0   51.1   50.9    85   46.6  12.0   WSW   2.00  17.0   WSW   45.4   51.0   45.4   43.3  30.127  0.00  0.00     0     0.00      0     0.0  0.00   0.0   0.097   0.000   69.1    49   49.1   67.6   9.07  .0747    0.000   202    7    100.0   10 
11/25/20  6:00a   51.2   51.3   51.0    83   46.2  13.0   WSW   2.17  18.0   WSW   45.2   51.2   45.2   43.1  30.130  0.00  0.00     0     0.00      0     0.0  0.00   0.0   0.096   0.000   69.2    49   49.2   67.6   9.07  .0747    0.001   202    7    100.0   10 
11/25/20  6:10a   51.0   51.4   51.0    84   46.3  14.0   WSW   2.33  19.0    SW   44.7   51.0   44.7   42.7  30.133  0.00  0.00     0     0.00      0     0.0  0.00   0.0   0.097   0.000   69.2    49   49.2   67.6   9.07  .0747    0.000   203    7    100.0   10 
11/25/20  6:20a   50.9   51.0   50.8    84   46.2  13.0    SW   2.17  17.0   WSW   44.9   50.9   44.9   42.8  30.137  0.00  0.00     0     0.00      0     0.0  0.00   0.0   0.098   0.000   69.3    49   49.3   67.7   9.06  .0747    0.000   202    7    100.0   10 
11/25/20  6:30a   50.8   51.1   50.7    85   46.5  12.0    SW   2.00  16.0   WSW   45.2   50.8   45.2   43.1  30.142  0.00  0.00     0     0.00      0     0.0  0.00   0.0   0.099   0.000   69.3    49   49.3   67.7   9.06  .0747    0.000   203    7    100.0   10 
11/25/20  6:40a   50.9   51.0   50.8    86   46.9  11.0   WSW   1.83  14.0    SW   45.8   51.0   45.9   43.7  30.151  0.00  0.00     0     0.00      0     0.0  0.00   0.0   0.098   0.000   69.6    49   49.6   67.9   9.06  .0747    0.000   204    7    100.0   10 
11/25/20  6:50a   50.9   50.9   50.6    83   45.9  12.0   WSW   2.00  15.0   WSW   45.3   50.9   45.3   43.2  30.153  0.00  0.00     0     0.00      0     0.0  0.00   0.0   0.098   0.000   69.8    49   49.8   68.1   9.05  .0746    0.000   202    7    100.0   10 
11/25/20  7:00a   51.2   51.2   50.9    83   46.2  13.0     W   2.17  16.0     W   45.2   51.2   45.2   43.1  30.151  0.00  0.00     0     0.00      0     0.0  0.00   0.0   0.096   0.000   70.1    49   50.0   68.3   9.05  .0746    0.001   203    7    100.0   10 
11/25/20  7:10a   50.9   51.1   50.8    86   46.9  13.0    SW   2.17  17.0    SW   44.9   51.0   45.0   42.9  30.159  0.00  0.00     0     0.00      0     0.0  0.00   0.0   0.098   0.000   70.3    49   50.2   68.6   9.05  .0746    0.000   200    7    100.0   10 
11/25/20  7:20a   48.9   50.9   48.9    85   44.6   9.0   WNW   1.50  19.0   WNW   44.6   49.0   44.7   42.3  30.164  0.00  0.00     0     0.00      0     0.0  0.00   0.0   0.112   0.000   70.4    49   50.3   68.7   9.05  .0746    0.000   204    7    100.0   10 
11/25/20  7:30a   49.0   49.0   48.7    84   44.4   7.0   WNW   1.17  12.0    NW   46.0   49.1   46.1   43.5  30.164  0.00  0.00     0     0.00      0     0.0  0.00   0.0   0.111   0.000   70.4    49   50.3   68.7   9.05  .0746    0.000   204    7    100.0   10 
11/25/20  7:40a   49.7   49.7   49.0    85   45.4   8.0     W   1.33  16.0     W   46.1   49.8   46.2   43.7  30.169  0.00  0.00     0     0.00      0     0.0  0.00   0.0   0.106   0.000   70.4    49   50.3   68.7   9.05  .0746    0.000   203    7    100.0   10 
11/25/20  7:50a   48.4   49.7   48.4    86   44.4  12.0     W   2.00  19.0     W   42.5   48.5   42.6   40.5  30.169  0.01  0.00     6     0.09     11     0.0  0.00   0.0   0.115   0.000   70.3    49   50.2   68.6   9.05  .0746    0.000   201    7    100.0   10 
11/25/20  8:00a   48.1   48.5   48.0    86   44.1   4.0    SW   0.67  11.0    SW   46.7   48.1   46.7   44.5  30.173  0.00  0.00    16     0.23     23     0.0  0.00   0.0   0.117   0.000   70.3    49   50.2   68.6   9.05  .0746    0.001   203    7    100.0   10 
11/25/20  8:10a   48.3   48.4   48.0    87   44.6   2.0    SW   0.33   7.0     W   48.3   48.4   48.4   46.6  30.179  0.00  0.00    33     0.47     37     0.0  0.00   0.0   0.116   0.000   70.3    49   50.2   68.6   9.05  .0746    0.000   202    7    100.0   10 
11/25/20  8:20a   47.6   48.4   47.6    87   43.9   2.0     S   0.33   6.0     S   47.6   47.7   47.7   45.9  30.181  0.00  0.00    35     0.50     37     0.0  0.00   0.0   0.121   0.000   70.3    49   50.2   68.6   9.05  .0746    0.000   203    7    100.0   10 
11/25/20  8:30a   47.3   47.5   47.1    89   44.2   1.0   SSE   0.17   4.0     S   47.3   47.5   47.5   46.3  30.183  0.00  0.00    60     0.86     67     0.0  0.00   0.0   0.123   0.000   70.2    49   50.1   68.5   9.05  .0746    0.000   202    7    100.0   10 
11/25/20  8:40a   47.8   47.8   47.3    90   45.0   2.0     S   0.33   6.0   SSW   47.8   48.0   48.0   48.8  30.186  0.00  0.00    66     0.95     70     0.0  0.00   0.0   0.119   0.000   70.2    49   50.1   68.5   9.05  .0746    0.000   201    7    100.0   10 
11/25/20  8:50a   48.6   48.6   47.8    91   46.1   4.0     S   0.67  11.0   WSW   47.3   48.9   47.6   47.9  30.186  0.00  0.00    51     0.73     58     0.0  0.00   0.0   0.114   0.000   70.1    49   50.0   68.3   9.05  .0747    0.000   202    7    100.0   10 
11/25/20  9:00a   50.1   50.1   48.6    87   46.4  11.0    SW   1.83  15.0    SW   44.9   50.3   45.1   46.0  30.188  0.00  0.00    71     1.02     91     0.0  0.00   0.0   0.103   0.000   70.1    49   50.0   68.3   9.05  .0747    0.001   205    7    100.0   10 
11/25/20  9:10a   50.3   50.3   50.1    86   46.3  11.0    SW   1.83  16.0   SSW   45.1   50.4   45.2   46.9  30.190  0.00  0.00    93     1.33    125     0.0  0.00   0.0   0.102   0.000   70.1    49   50.0   68.3   9.05  .0747    0.000   201    7    100.0   10 
11/25/20  9:20a   49.8   50.3   49.8    87   46.1  11.0   SSW   1.83  17.0   SSE   44.6   50.0   44.8   46.5  30.192  0.00  0.00    94     1.35    102     0.0  0.00   0.0   0.106   0.000   70.2    49   50.1   68.5   9.05  .0747    0.000   202    7    100.0   10 
11/25/20  9:30a   49.2   49.8   49.2    88   45.8  10.0    SW   1.67  18.0    SW   44.3   49.4   44.5   44.3  30.198  0.00  0.00    45     0.65     58     0.0  0.00   0.0   0.110   0.000   70.2    49   50.1   68.5   9.05  .0747    0.000   202    7    100.0   10 
11/25/20  9:40a   49.9   49.9   49.3    89   46.8   8.0    SW   1.33  13.0    SW   46.4   50.2   46.7   49.3  30.199  0.00  0.00   115     1.65    141     0.2  0.01   0.5   0.105   0.000   70.2    49   50.1   68.5   9.05  .0747    0.000   204    7    100.0   10 
11/25/20  9:50a   50.3   50.3   49.9    89   47.2  10.0   SSW   1.67  15.0   SSE   45.7   50.5   45.9   49.8  30.203  0.00  0.00   166     2.38    190     0.5  0.04   0.5   0.102   0.000   70.3    49   50.2   68.6   9.05  .0747    0.000   203    7    100.0   10 
11/25/20 10:00a   50.4   50.4   50.2    88   47.0  10.0    SW   1.67  15.0    SW   45.8   50.6   46.0   50.1  30.206  0.00  0.00   180     2.58    306     0.2  0.01   0.6   0.101   0.000   70.2    49   50.1   68.5   9.05  .0747    0.003   203    7    100.0   10 
11/25/20 10:10a   50.6   50.6   50.3    88   47.2   9.0    SW   1.50  14.0    SW   46.6   50.8   46.8   48.7  30.209  0.00  0.00   106     1.52    142     0.5  0.04   0.5   0.100   0.000   70.3    49   50.2   68.6   9.05  .0747    0.000   201    7    100.0   10 
11/25/20 10:20a   50.3   50.8   50.3    86   46.3  12.0   WSW   2.00  17.0     W   44.6   50.4   44.7   45.9  30.214  0.00  0.00    93     1.33    128     0.2  0.01   0.6   0.102   0.000   70.3    49   50.2   68.6   9.05  .0747    0.000   204    7    100.0   10 
11/25/20 10:30a   50.7   50.7   50.3    86   46.7  11.0   WSW   1.83  15.0   WSW   45.6   50.8   45.7   48.2  30.217  0.00  0.00   138     1.98    153     0.7  0.05   0.8   0.099   0.000   70.3    49   50.2   68.6   9.05  .0747    0.000   201    7    100.0   10 
11/25/20 10:40a   51.0   51.1   50.6    86   47.0  10.0   WSW   1.67  13.0   WSW   46.5   51.0   46.5   53.5  30.218  0.00  0.00   313     4.49    366     1.0  0.07   1.0   0.097   0.000   70.3    49   50.2   68.6   9.05  .0747    0.000   203    7    100.0   10 
11/25/20 10:50a   51.1   51.1   50.9    85   46.7   9.0   WSW   1.50  13.0   WSW   47.2   51.1   47.2   54.3  30.220  0.00  0.00   311     4.46    360     1.0  0.07   1.0   0.097   0.000   70.4    49   50.3   68.7   9.05  .0747    0.000   204    7    100.0   10 
11/25/20 11:00a   51.3   51.4   51.1    83   46.3  10.0   WSW   1.67  14.0   WSW   46.8   51.2   46.7   54.0  30.224  0.00  0.00   337     4.83    432     1.1  0.08   1.1   0.095   0.000   70.5    49   50.4   68.9   9.05  .0747    0.005   204    7    100.0   10 
11/25/20 11:10a   51.6   51.7   51.3    84   46.9  10.0     W   1.67  13.0     W   47.2   51.6   47.2   54.9  30.226  0.00  0.00   371     5.32    401     1.1  0.08   1.1   0.093   0.000   70.6    49   50.5   69.0   9.05  .0747    0.000   203    7    100.0   10 
11/25/20 11:20a   51.5   51.7   51.5    84   46.8   8.0    SW   1.33  12.0   WSW   48.3   51.5   48.3   54.7  30.227  0.00  0.00   276     3.96    473     1.0  0.07   1.2   0.094   0.000   70.6    49   50.5   69.0   9.05  .0747    0.000   202    7    100.0   10 
11/25/20 11:30a   51.5   51.5   51.4    84   46.8   8.0   WSW   1.33  11.0    SW   48.3   51.5   48.3   53.4  30.230  0.00  0.00   229     3.28    269     1.0  0.07   1.0   0.094   0.000   70.6    49   50.5   69.0   9.05  .0747    0.000   204    7    100.0   10 
11/25/20 11:40a   51.6   51.7   51.5    85   47.2   7.0    SW   1.17  11.0   WSW   49.1   51.6   49.1   54.1  30.230  0.00  0.00   218     3.13    309     0.8  0.06   1.1   0.093   0.000   70.6    49   50.5   69.0   9.05  .0747    0.000   204    7    100.0   10 
11/25/20 11:50a   51.0   51.6   50.9    81   45.4  12.0     W   2.00  16.0     W   45.4   50.9   45.3   48.3  30.232  0.00  0.00   171     2.45    202     0.8  0.06   1.0   0.097   0.000   70.6    49   50.5   69.0   9.05  .0747    0.000   202    7    100.0   10 
11/25/20 12:00p   51.1   51.3   51.1    83   46.1  11.0     W   1.83  14.0     W   46.0   51.1   46.0   50.4  30.234  0.00  0.00   225     3.23    274     1.0  0.07   1.2   0.097   0.000   70.6    49   50.5   69.0   9.05  .0747    0.006   203    7    100.0   10 
11/25/20 12:10p   51.2   51.3   51.0    81   45.6  10.0   WSW   1.67  12.0     W   46.7   51.1   46.6   50.3  30.232  0.00  0.00   193     2.77    279     1.0  0.07   1.1   0.096   0.000   70.6    49   50.5   69.0   9.05  .0747    0.000   204    7    100.0   10 
11/25/20 12:20p   51.6   51.6   51.1    80   45.6  10.0     W   1.67  13.0     W   47.2   51.4   47.0   51.3  30.230  0.00  0.00   218     3.13    257     1.1  0.08   1.2   0.093   0.000   70.6    49   50.5   69.0   9.05  .0747    0.000   202    7    100.0   10 
11/25/20 12:30p   51.6   51.6   51.4    80   45.6   9.0     W   1.50  12.0   WSW   47.8   51.4   47.6   51.1  30.231  0.00  0.00   181     2.59    230     1.0  0.07   1.0   0.093   0.000   70.6    49   50.5   69.0   9.05  .0747    0.000   202    7    100.0   10 
11/25/20 12:40p   51.7   51.9   51.6    82   46.4  10.0     W   1.67  13.0     W   47.3   51.6   47.2   53.7  30.235  0.00  0.00   311     4.46    436     1.1  0.08   1.2   0.092   0.000   70.5    49   50.4   68.9   9.05  .0747    0.000   203    7    100.0   10 
11/25/20 12:50p   51.5   51.7   51.4    85   47.1   9.0     W   1.50  11.0   WNW   47.7   51.5   47.7   56.0  30.238  0.00  0.00   445     6.38    494     1.2  0.09   1.2   0.094   0.000   70.6    49   50.5   69.0   9.05  .0747    0.000   202    7    100.0   10 
11/25/20  1:00p   51.4   51.5   51.3    83   46.4   9.0     W   1.50  11.0     W   47.5   51.3   47.4   55.8  30.238  0.00  0.00   447     6.41    482     1.1  0.08   1.2   0.094   0.000   70.6    49   50.5   69.0   9.05  .0747    0.007   201    7    100.0   10 
11/25/20  1:10p   51.3   51.5   51.3    81   45.7   8.0     W   1.33  10.0     W   48.1   51.2   48.0   56.6  30.239  0.00  0.00   407     5.83    469     1.0  0.07   1.1   0.095   0.000   70.6    49   50.5   69.0   9.05  .0747    0.000   202    7    100.0   10 
11/25/20  1:20p   51.6   51.8   51.4    80   45.6   9.0     W   1.50  11.0     W   47.8   51.4   47.6   53.6  30.241  0.00  0.00   276     3.96    315     1.0  0.07   1.0   0.093   0.000   70.7    49   50.6   69.1   9.05  .0747    0.000   203    7    100.0   10 
11/25/20  1:30p   51.9   51.9   51.6    79   45.6   9.0     W   1.50  11.0     W   48.1   51.7   47.9   54.4  30.244  0.00  0.00   295     4.23    346     0.8  0.06   0.9   0.091   0.000   70.7    49   50.6   69.1   9.05  .0747    0.000   205    7    100.0   10 
11/25/20  1:40p   51.8   51.9   51.6    80   45.8  10.0   WSW   1.67  13.0     W   47.4   51.6   47.2   51.2  30.247  0.00  0.00   195     2.80    253     0.6  0.04   0.7   0.092   0.000   70.7    49   50.6   69.1   9.05  .0747    0.000   202    7    100.0   10 
11/25/20  1:50p   52.3   52.3   51.8    82   47.0   9.0    SW   1.50  13.0   WSW   48.6   52.2   48.5   55.6  30.245  0.00  0.00   319     4.57    397     0.8  0.06   0.8   0.088   0.000   70.7    49   50.6   69.1   9.05  .0747    0.000   204    7    100.0   10 
11/25/20  2:00p   52.1   52.3   52.0    81   46.4  10.0   WSW   1.67  14.0     W   47.7   51.9   47.5   55.2  30.247  0.00  0.00   394     5.65    454     0.8  0.06   0.8   0.090   0.000   70.7    49   50.6   69.1   9.05  .0747    0.007   203    7    100.0   10 
11/25/20  2:10p   51.9   52.1   51.9    81   46.3   9.0   WSW   1.50  12.0   WSW   48.1   51.7   47.9   53.4  30.248  0.00  0.00   237     3.40    322     0.6  0.04   0.7   0.091   0.000   70.7    49   50.6   69.1   9.05  .0747    0.000   204    7    100.0   10 
11/25/20  2:20p   52.1   52.2   51.8    81   46.4   8.0    SW   1.33  11.0    SW   49.0   51.9   48.8   55.5  30.248  0.00  0.00   277     3.97    387     0.6  0.04   0.7   0.090   0.000   70.7    49   50.6   69.1   9.05  .0747    0.000   204    7    100.0   10 
11/25/20  2:30p   52.2   52.3   52.0    82   46.9   7.0    SW   1.17  11.0    SW   49.8   52.1   49.7   57.2  30.250  0.00  0.00   293     4.20    306     0.6  0.04   0.6   0.089   0.000   70.8    49   50.7   69.2   9.05  .0747    0.000   204    7    100.0   10 
11/25/20  2:40p   51.9   52.3   51.9    83   46.9   7.0    SW   1.17  11.0    SW   49.5   51.8   49.4   56.4  30.251  0.00  0.00   268     3.84    364     0.3  0.02   0.5   0.091   0.000   70.8    49   50.7   69.2   9.05  .0747    0.000   205    7    100.0   10 
11/25/20  2:50p   51.5   51.9   51.5    84   46.8   8.0    SW   1.33  10.0   WSW   48.3   51.5   48.3   51.3  30.256  0.00  0.00   138     1.98    176     0.0  0.00   0.0   0.094   0.000   70.8    49   50.7   69.2   9.05  .0747    0.000   202    7    100.0   10 
11/25/20  3:00p   51.3   51.5   51.3    85   46.9   7.0    SW   1.17  10.0   WSW   48.8   51.3   48.8   49.1  30.260  0.00  0.00    59     0.85     67     0.0  0.00   0.0   0.095   0.000   70.8    49   50.7   69.2   9.05  .0747    0.005   203    7    100.0   10 
11/25/20  3:10p   51.3   51.5   51.3    86   47.3   7.0    SW   1.17  10.0    SW   48.8   51.3   48.8   49.0  30.264  0.01  0.00    54     0.77     65     0.0  0.00   0.0   0.095   0.000   70.8    49   50.7   69.2   9.05  .0747    0.000   202    7    100.0   10 
11/25/20  3:20p   51.3   51.4   51.1    87   47.6   5.0    SW   0.83  12.0   SSW   49.8   51.4   49.9   50.4  30.264  0.00  0.00    59     0.85    169     0.0  0.00   0.0   0.095   0.000   70.8    49   50.7   69.2   9.05  .0747    0.000   202    7    100.0   10 
11/25/20  3:30p   50.4   51.3   50.4    87   46.7   9.0   WSW   1.50  13.0    SW   46.4   50.5   46.5   51.3  30.272  0.00  0.00   192     2.75    239     0.0  0.00   0.0   0.101   0.000   70.8    49   50.7   69.2   9.05  .0748    0.000   204    7    100.0   10 
11/25/20  3:40p   50.5   50.6   50.4    87   46.8   6.0     W   1.00  12.0   WSW   48.3   50.6   48.4   51.5  30.273  0.00  0.00   124     1.78    202     0.0  0.00   0.0   0.101   0.000   70.8    49   50.7   69.2   9.05  .0748    0.000   200    7    100.0   10 
11/25/20  3:50p   50.5   50.7   50.5    86   46.5   8.0    SW   1.33  11.0    SW   47.1   50.6   47.2   47.6  30.275  0.00  0.00    55     0.79     79     0.0  0.00   0.0   0.101   0.000   70.7    49   50.6   69.1   9.05  .0748    0.000   203    7    100.0   10 
11/25/20  4:00p   50.7   50.7   50.5    87   47.0   6.0    SW   1.00  10.0   WSW   48.5   50.8   48.6   48.4  30.276  0.00  0.00    39     0.56     42     0.0  0.00   0.0   0.099   0.000   70.8    49   50.7   69.2   9.05  .0748    0.002   205    7    100.0   10 
11/25/20  4:10p   50.7   50.8   50.6    87   47.0   6.0    SW   1.00  10.0   WSW   48.5   50.8   48.6   47.6  30.276  0.00  0.00    24     0.34     39     0.0  0.00   0.0   0.099   0.000   70.7    49   50.6   69.1   9.05  .0748    0.000   204    7    100.0   10 
11/25/20  4:20p   50.7   50.8   50.6    88   47.3   6.0    SW   1.00  11.0    SW   48.5   50.8   48.6   46.8  30.282  0.01  0.00     7     0.10     11     0.0  0.00   0.0   0.099   0.000   70.7    49   50.6   69.1   9.05  .0748    0.000   203    7    100.0   10 
11/25/20  4:30p   50.5   50.7   50.4    88   47.1   8.0     W   1.33  18.0     W   47.1   50.7   47.3   45.0  30.290  0.00  0.00     8     0.11     16     0.0  0.00   0.0   0.101   0.000   70.7    49   50.6   69.1   9.05  .0748    0.000   204    7    100.0   10 
11/25/20  4:40p   50.5   50.6   50.4    88   47.1   5.0   WSW   0.83   8.0   WSW   48.8   50.7   49.0   46.8  30.293  0.00  0.00    13     0.19     16     0.0  0.00   0.0   0.101   0.000   70.7    49   50.6   69.1   9.05  .0748    0.000   203    7    100.0   10 
11/25/20  4:50p   50.6   50.6   50.4    88   47.2   5.0     W   0.83   7.0     W   48.9   50.8   49.1   46.6  30.295  0.00  0.00     2     0.03      7     0.0  0.00   0.0   0.100   0.000   70.6    49   50.5   69.0   9.05  .0749    0.000   203    7    100.0   10 
11/25/20  5:00p   50.8   50.8   50.6    88   47.4   4.0     W   0.67   7.0     W   49.8   50.9   49.9   47.4  30.298  0.00  0.00     0     0.00      0     0.0  0.00   0.0   0.099   0.000   70.6    49   50.5   69.0   9.05  .0749    0.001   204    7    100.0   10 
11/25/20  5:10p   50.6   50.8   50.6    88   47.2   3.0   SSW   0.50   7.0   WSW   50.4   50.8   50.6   48.1  30.299  0.00  0.00     0     0.00      0     0.0  0.00   0.0   0.100   0.000   70.6    49   50.5   69.0   9.05  .0749    0.000   201    7    100.0   10 
11/25/20  5:20p   50.6   50.7   50.6    88   47.2   3.0     S   0.50   6.0     W   50.4   50.8   50.6   48.1  30.304  0.01  0.00     0     0.00      0     0.0  0.00   0.0   0.100   0.000   70.5    49   50.4   68.9   9.05  .0749    0.000   203    7    100.0   10 
11/25/20  5:30p   50.8   50.8   50.6    89   47.7   4.0   WSW   0.67   8.0     W   49.8   51.0   50.0   47.5  30.305  0.01  0.06     0     0.00      0     0.0  0.00   0.0   0.099   0.000   70.5    49   50.4   68.9   9.05  .0749    0.000   202    7    100.0   10 
11/25/20  5:40p   50.6   50.8   50.5    89   47.5   5.0    SW   0.83   8.0   WSW   48.9   50.8   49.1   46.6  30.302  0.00  0.05     0     0.00      0     0.0  0.00   0.0   0.100   0.000   70.5    50   51.0   68.9   9.25  .0749    0.000   204    7    100.0   10 
11/25/20  5:50p   50.3   50.6   50.3    90   47.5   2.0    SW   0.33   7.0     W   50.3   50.6   50.6   48.1  30.307  0.00  0.00     0     0.00      0     0.0  0.00   0.0   0.102   0.000   70.5    50   51.0   68.9   9.25  .0749    0.000   204    7    100.0   10 
11/25/20  6:00p   49.9   50.4   49.9    90   47.1   1.0     S   0.17   3.0     S   49.9   50.2   50.2   47.7  30.308  0.00  0.00     0     0.00      0     0.0  0.00   0.0   0.105   0.000   70.5    50   51.0   68.9   9.25  .0749    0.000   204    7    100.0   10 
11/25/20  6:10p   49.8   49.9   49.7    91   47.3   1.0   SSW   0.17   4.0   SSW   49.8   50.1   50.1   47.6  30.313  0.00  0.00     0     0.00      0     0.0  0.00   0.0   0.106   0.000   70.4    50   50.9   68.8   9.25  .0749    0.000   204    7    100.0   10 
11/25/20  6:20p   49.9   49.9   49.6    92   47.7   3.0   SSW   0.50   9.0   SSE   49.6   50.3   50.0   47.5  30.314  0.00  0.00     0     0.00      0     0.0  0.00   0.0   0.105   0.000   70.4    50   50.9   68.8   9.25  .0749    0.000   203    7    100.0   10 
11/25/20  6:30p   49.8   49.9   49.6    92   47.6   4.0   WSW   0.67   7.0    SE   48.7   50.2   49.1   46.6  30.316  0.00  0.00     0     0.00      0     0.0  0.00   0.0   0.106   0.000   70.4    50   50.9   68.8   9.25  .0749    0.000   205    7    100.0   10 
11/25/20  6:40p   49.9   50.0   49.8    91   47.4   3.0    SW   0.50   6.0     W   49.6   50.2   49.9   47.4  30.316  0.00  0.00     0     0.00      0     0.0  0.00   0.0   0.105   0.000   70.4    50   50.9   68.8   9.25  .0749    0.000   202    7    100.0   10 
11/25/20  6:50p   50.0   50.0   49.8    91   47.5   3.0     W   0.50   9.0   WSW   49.7   50.3   50.0   47.5  30.317  0.00  0.00     0     0.00      0     0.0  0.00   0.0   0.104   0.000   70.2    50   50.7   68.6   9.25  .0750    0.000   204    7    100.0   10 
11/25/20  7:00p   50.0   50.2   50.0    91   47.5   4.0   WSW   0.67   9.0   WSW   48.9   50.3   49.2   46.7  30.322  0.00  0.00     0     0.00      0     0.0  0.00   0.0   0.104   0.000   70.2    50   50.7   68.6   9.25  .0750    0.000   203    7    100.0   10 
11/25/20  7:10p   49.8   50.1   49.7    91   47.3   1.0     S   0.17   5.0   SSE   49.8   50.1   50.1   47.6  30.325  0.00  0.00     0     0.00      0     0.0  0.00   0.0   0.106   0.000   70.1    50   50.6   68.4   9.25  .0750    0.000   204    7    100.0   10 
11/25/20  7:20p   49.9   49.9   49.7    92   47.7   4.0   SSW   0.67   8.0     W   48.8   50.3   49.2   46.7  30.331  0.00  0.00     0     0.00      0     0.0  0.00   0.0   0.105   0.000   70.1    50   50.6   68.4   9.25  .0750    0.000   204    7    100.0   10 
11/25/20  7:30p   50.0   50.0   49.8    92   47.8   4.0   SSW   0.67   8.0   SSE   48.9   50.4   49.3   46.8  30.335  0.00  0.00     0     0.00      0     0.0  0.00   0.0   0.104   0.000   70.1    50   50.6   68.4   9.25  .0750    0.000   201    7    100.0   10 
11/25/20  7:40p   50.0   50.1   49.9    92   47.8   5.0     W   0.83  11.0   WNW   48.2   50.4   48.6   46.1  30.337  0.00  0.00     0     0.00      0     0.0  0.00   0.0   0.104   0.000   70.1    50   50.6   68.4   9.25  .0750    0.000   203    7    100.0   10 
11/25/20  7:50p   50.7   50.7   50.0    91   48.2   9.0     W   1.50  12.0     W   46.7   51.0   47.0   44.7  30.342  0.00  0.00     0     0.00      0     0.0  0.00   0.0   0.099   0.000   70.0    50   50.5   68.3   9.25  .0751    0.000   203    7    100.0   10 
11/25/20  8:00p   50.9   50.9   50.6    90   48.1   6.0     W   1.00  10.0     W   48.8   51.1   49.0   46.5  30.343  0.00  0.00     0     0.00      0     0.0  0.00   0.0   0.098   0.000   70.1    50   50.6   68.4   9.25  .0750    0.000   203    7    100.0   10 
11/25/20  8:10p   50.9   50.9   50.8    90   48.1   4.0   WNW   0.67   8.0   WNW   49.9   51.1   50.1   47.6  30.347  0.00  0.00     0     0.00      0     0.0  0.00   0.0   0.098   0.000   70.1    50   50.6   68.4   9.25  .0750    0.000   203    7    100.0   10 
11/25/20  8:20p   51.0   51.0   50.8    90   48.2   6.0   WNW   1.00  10.0     W   48.9   51.2   49.1   46.6  30.349  0.00  0.00     0     0.00      0     0.0  0.00   0.0   0.097   0.000   70.0    50   50.5   68.3   9.25  .0751    0.000   202    7    100.0   10 
11/25/20  8:30p   51.1   51.1   50.9    89   48.0   6.0   WNW   1.00  10.0     W   49.0   51.3   49.2   46.7  30.353  0.00  0.00     0     0.00      0     0.0  0.00   0.0   0.097   0.000   70.0    50   50.5   68.3   9.25  .0751    0.000   204    7    100.0   10 
11/25/20  8:40p   51.0   51.1   51.0    89   47.9   6.0   WNW   1.00  10.0   WNW   48.9   51.2   49.1   46.6  30.355  0.00  0.00     0     0.00      0     0.0  0.00   0.0   0.097   0.000   70.0    50   50.5   68.3   9.25  .0751    0.000   203    7    100.0   10 
11/25/20  8:50p   51.0   51.1   51.0    89   47.9   6.0   WNW   1.00  10.0   WNW   48.9   51.2   49.1   46.6  30.358  0.00  0.00     0     0.00      0     0.0  0.00   0.0   0.097   0.000   69.9    50   50.4   68.2   9.25  .0751    0.000   203    7    100.0   10 
11/25/20  9:00p   51.0   51.0   50.9    89   47.9   5.0   WNW   0.83  10.0   WNW   49.4   51.2   49.6   47.1  30.361  0.00  0.00     0     0.00      0     0.0  0.00   0.0   0.097   0.000   69.9    50   50.4   68.2   9.25  .0751    0.001   202    7    100.0   10 
11/25/20  9:10p   51.0   51.0   50.9    89   47.9   4.0   WNW   0.67   7.0   WNW   50.0   51.2   50.2   47.7  30.361  0.00  0.00     0     0.00      0     0.0  0.00   0.0   0.097   0.000   69.8    50   50.3   68.2   9.25  .0751    0.000   204    7    100.0   10 
11/25/20  9:20p   51.1   51.1   51.0    89   48.0   2.0   WNW   0.33   6.0     W   51.1   51.3   51.3   48.8  30.361  0.00  0.00     0     0.00      0     0.0  0.00   0.0   0.097   0.000   69.8    50   50.3   68.2   9.25  .0751    0.000   203    7    100.0   10 
11/25/20  9:30p   50.9   51.1   50.8    90   48.1   2.0    NW   0.33   4.0   WNW   50.9   51.1   51.1   48.6  30.362  0.00  0.00     0     0.00      0     0.0  0.00   0.0   0.098   0.000   69.7    50   50.2   68.1   9.26  .0752    0.000   203    7    100.0   10 
11/25/20  9:40p   50.3   50.9   50.3    89   47.2   2.0    NE   0.33   4.0    NW   50.3   50.5   50.5   48.0  30.366  0.00  0.00     0     0.00      0     0.0  0.00   0.0   0.102   0.000   69.7    50   50.2   68.1   9.26  .0752    0.000   204    7    100.0   10 
11/25/20  9:50p   50.0   50.3   49.8    90   47.2   1.0   SSW   0.17   4.0   WNW   50.0   50.3   50.3   47.8  30.370  0.00  0.00     0     0.00      0     0.0  0.00   0.0   0.104   0.000   69.7    50   50.2   68.1   9.26  .0752    0.000   203    7    100.0   10 
11/25/20 10:00p   50.3   50.5   50.0    90   47.5   2.0   NNW   0.33   6.0     W   50.3   50.6   50.6   48.1  30.374  0.00  0.00     0     0.00      0     0.0  0.00   0.0   0.102   0.000   69.6    50   50.1   68.0   9.26  .0752    0.000   200    7    100.0   10 
11/25/20 10:10p   50.2   50.3   50.1    90   47.4   2.0   NNW   0.33   7.0     W   50.2   50.5   50.5   48.0  30.373  0.00  0.00     0     0.00      0     0.0  0.00   0.0   0.103   0.000   69.6    50   50.1   68.0   9.26  .0752    0.000   200    7    100.0   10 
11/25/20 10:20p   49.9   50.1   49.8    91   47.4   2.0     S   0.33   5.0     S   49.9   50.2   50.2   47.7  30.378  0.00  0.00     0     0.00      0     0.0  0.00   0.0   0.105   0.000   69.5    49   49.5   67.9   9.06  .0752    0.000   203    7    100.0   10 
11/25/20 10:30p   49.1   49.9   49.1    91   46.6   1.0     S   0.17   3.0    SW   49.1   49.4   49.4   46.8  30.382  0.00  0.00     0     0.00      0     0.0  0.00   0.0   0.110   0.000   69.5    49   49.5   67.9   9.06  .0753    0.000   204    7    100.0   10 
11/25/20 10:40p   48.6   49.1   48.5    91   46.1   0.0     S   0.00   2.0     S   48.6   48.9   48.9   46.3  30.383  0.00  0.00     0     0.00      0     0.0  0.00   0.0   0.114   0.000   69.5    49   49.5   67.9   9.06  .0753    0.000   200    7    100.0   10 
11/25/20 10:50p   48.4   48.6   48.4    92   46.2   0.0   SSW   0.00   2.0   SSW   48.4   48.7   48.7   46.1  30.384  0.00  0.00     0     0.00      0     0.0  0.00   0.0   0.115   0.000   69.4    49   49.4   67.8   9.06  .0753    0.000   204    7    100.0   10 
11/25/20 11:00p   48.1   48.4   48.1    92   45.9   0.0     S   0.00   3.0     S   48.1   48.4   48.4   45.8  30.383  0.00  0.00     0     0.00      0     0.0  0.00   0.0   0.117   0.000   69.4    49   49.4   67.8   9.06  .0753    0.000   203    7    100.0   10 
11/25/20 11:10p   48.2   48.2   47.9    93   46.3   1.0     S   0.17   4.0     S   48.2   48.5   48.5   45.9  30.385  0.00  0.00     0     0.00      0     0.0  0.00   0.0   0.117   0.000   69.4    49   49.4   67.8   9.06  .0753    0.000   201    7    100.0   10 
11/25/20 11:20p   47.7   48.1   47.7    92   45.5   0.0     S   0.00   2.0   SSW   47.7   48.0   48.0   45.4  30.386  0.00  0.00     0     0.00      0     0.0  0.00   0.0   0.120   0.000   69.3    49   49.3   67.7   9.06  .0753    0.000   203    7    100.0   10 
11/25/20 11:30p   47.3   47.7   47.3    93   45.4   1.0     S   0.17   5.0     S   47.3   47.6   47.6   45.0  30.390  0.00  0.00     0     0.00      0     0.0  0.00   0.0   0.123   0.000   69.3    50   49.9   67.8   9.26  .0753    0.000   204    7    100.0   10 
11/25/20 11:40p   47.0   47.4   47.0    93   45.1   0.0   ---   0.00   0.0   ---   47.0   47.3   47.3   44.7  30.396  0.00  0.00     0     0.00      0     0.0  0.00   0.0   0.125   0.000   69.2    49   49.2   67.6   9.07  .0753    0.000   202    7    100.0   10 
11/25/20 11:50p   46.8   47.0   46.7    93   44.9   0.0   ---   0.00   0.0   ---   46.8   47.1   47.1   44.4  30.396  0.00  0.00     0     0.00      0     0.0  0.00   0.0   0.126   0.000   69.1    50   49.7   67.7   9.27  .0753    0.000   203    7    100.0   10 
11/26/20 12:00a   46.9   46.9   46.7    93   45.0   0.0   ---   0.00   0.0   ---   46.9   47.2   47.2   44.5  30.395  0.00  0.00     0     0.00      0     0.0  0.00   0.0   0.126   0.000   69.1    49   49.1   67.6   9.07  .0754    0.000   201    7    100.0   10 
11/26/20 12:10a   46.7   46.8   46.7    93   44.8   0.0   ---   0.00   0.0   ---   46.7   46.9   46.9   44.2  30.396  0.00  0.00     0     0.00      0     0.0  0.00   0.0   0.127   0.000   69.0    49   49.0   67.5   9.07  .0754    0.000   203    7    100.0   10 
11/26/20 12:20a   46.6   46.8   46.6    94   45.0   0.0   ---   0.00   0.0   ---   46.6   46.9   46.9   44.2  30.395  0.00  0.00     0     0.00      0     0.0  0.00   0.0   0.128   0.000   69.0    49   49.0   67.5   9.07  .0754    0.000   204    7    100.0   10 
11/26/20 12:30a   47.0   47.0   46.6    95   45.6   0.0   SSW   0.00   4.0    SW   47.0   47.3   47.3   44.7  30.401  0.00  0.00     0     0.00      0     0.0  0.00   0.0   0.125   0.000   69.0    49   49.0   67.5   9.07  .0754    0.000   204    7    100.0   10 
11/26/20 12:40a   47.0   47.2   47.0    94   45.4   0.0     S   0.00   2.0   SSW   47.0   47.3   47.3   44.7  30.403  0.00  0.00     0     0.00      0     0.0  0.00   0.0   0.125   0.000   68.9    49   48.9   67.4   9.07  .0754    0.000   203    7    100.0   10 
11/26/20 12:50a   47.0   47.2   46.9    94   45.4   1.0     S   0.17   3.0     S   47.0   47.3   47.3   44.7  30.402  0.00  0.00     0     0.00      0     0.0  0.00   0.0   0.125   0.000   68.9    49   48.9   67.4   9.07  .0754    0.000   200    7    100.0   10 
11/26/20  1:00a   46.6   46.9   46.6    94   45.0   1.0    SE   0.17   4.0   SSE   46.6   46.9   46.9   44.2  30.406  0.00  0.00     0     0.00      0     0.0  0.00   0.0   0.128   0.000   68.8    49   48.9   67.3   9.07  .0754    0.000   202    7    100.0   10 
11/26/20  1:10a   46.8   46.9   46.6    94   45.2   1.0   SSE   0.17   5.0   SSE   46.8   47.1   47.1   44.5  30.410  0.00  0.00     0     0.00      0     0.0  0.00   0.0   0.126   0.000   68.8    49   48.9   67.3   9.07  .0755    0.000   204    7    100.0   10 
11/26/20  1:20a   46.5   46.8   46.5    94   44.9   0.0   SSE   0.00   2.0   SSE   46.5   46.8   46.8   44.1  30.413  0.00  0.00     0     0.00      0     0.0  0.00   0.0   0.128   0.000   68.7    49   48.8   67.2   9.08  .0755    0.000   201    7    100.0   10 
11/26/20  1:30a   46.5   46.6   46.4    94   44.9   1.0   SSW   0.17   3.0   SSE   46.5   46.8   46.8   44.1  30.414  0.00  0.00     0     0.00      0     0.0  0.00   0.0   0.128   0.000   68.7    49   48.8   67.2   9.08  .0755    0.000   205    7    100.0   10 
11/26/20  1:40a   46.7   46.8   46.5    94   45.1   0.0   SSW   0.00   2.0   SSW   46.7   47.0   47.0   44.4  30.413  0.00  0.00     0     0.00      0     0.0  0.00   0.0   0.127   0.000   68.7    49   48.8   67.2   9.08  .0755    0.000   203    7    100.0   10 
11/26/20  1:50a   46.6   46.7   46.5    94   45.0   0.0   ---   0.00   0.0   ---   46.6   46.9   46.9   44.2  30.415  0.00  0.00     0     0.00      0     0.0  0.00   0.0   0.128   0.000   68.6    49   48.7   67.1   9.08  .0755    0.000   200    7    100.0   10 
11/26/20  2:00a   46.4   46.7   46.4    94   44.8   0.0   ---   0.00   0.0   ---   46.4   46.7   46.7   44.0  30.418  0.00  0.00     0     0.00      0     0.0  0.00   0.0   0.129   0.000   68.6    49   48.7   67.1   9.08  .0755    0.000   201    7    100.0   10 
11/26/20  2:10a   46.3   46.5   46.2    94   44.7   1.0    SE   0.17   4.0   SSE   46.3   46.6   46.6   43.9  30.421  0.00  0.00     0     0.00      0     0.0  0.00   0.0   0.130   0.000   68.5    49   48.6   67.1   9.08  .0755    0.000   204    7    100.0   10 
11/26/20  2:20a   46.3   46.5   46.2    95   44.9   1.0    SE   0.17   3.0    SE   46.3   46.6   46.6   43.9  30.425  0.00  0.00     0     0.00      0     0.0  0.00   0.0   0.130   0.000   68.4    49   48.5   67.0   9.08  .0756    0.000   200    7    100.0   10 
11/26/20  2:30a   46.1   46.3   46.1    94   44.5   1.0    SE   0.17   3.0    SE   46.1   46.4   46.4   43.7  30.430  0.00  0.00     0     0.00      0     0.0  0.00   0.0   0.131   0.000   68.4    49   48.5   67.0   9.08  .0756    0.000   204    7    100.0   10 
11/26/20  2:40a   46.1   46.1   46.0    95   44.7   1.0    SE   0.17   3.0   SSE   46.1   46.4   46.4   43.7  30.431  0.00  0.00     0     0.00      0     0.0  0.00   0.0   0.131   0.000   68.4    49   48.5   67.0   9.08  .0756    0.000   202    7    100.0   10 
11/26/20  2:50a   45.8   46.1   45.8    95   44.4   2.0    SE   0.33   4.0    SE   45.8   46.1   46.1   43.4  30.433  0.00  0.00     0     0.00      0     0.0  0.00   0.0   0.133   0.000   68.4    49   48.5   67.0   9.08  .0756    0.000   201    7    100.0   10 
11/26/20  3:00a   45.8   45.8   45.7    95   44.4   1.0   SSE   0.17   4.0   SSE   45.8   46.1   46.1   43.4  30.434  0.00  0.00     0     0.00      0     0.0  0.00   0.0   0.133   0.000   68.3    49   48.4   66.9   9.08  .0756    0.000   203    7    100.0   10 
11/26/20  3:10a   45.9   45.9   45.7    95   44.5   1.0   SSE   0.17   4.0    SE   45.9   46.2   46.2   43.5  30.435  0.02  0.15     0     0.00      0     0.0  0.00   0.0   0.133   0.000   68.2    49   48.3   66.8   9.09  .0756    0.000   203    7    100.0   10 
11/26/20  3:20a   46.2   46.2   45.8    96   45.1   1.0   ENE   0.17   3.0   SSE   46.2   46.5   46.5   43.9  30.440  0.02  0.15     0     0.00      0     0.0  0.00   0.0   0.131   0.000   68.2    49   48.3   66.8   9.09  .0756    0.000   205    7    100.0   10 
11/26/20  3:30a   47.4   47.4   46.2    96   46.3   2.0    NE   0.33   6.0    NE   47.4   47.8   47.8   45.2  30.440  0.03  0.24     0     0.00      0     0.0  0.00   0.0   0.122   0.000   68.2    49   48.3   66.8   9.09  .0756    0.000   204    7    100.0   10 
11/26/20  3:40a   47.3   47.5   47.2    95   45.9   0.0    NE   0.00   2.0    NE   47.3   47.6   47.6   45.0  30.437  0.02  0.29     0     0.00      0     0.0  0.00   0.0   0.123   0.000   68.2    49   48.3   66.8   9.09  .0756    0.000   204    7    100.0   10 
11/26/20  3:50a   47.7   47.8   47.3    95   46.3   1.0   SSW   0.17   5.0   SSW   47.7   48.1   48.1   45.5  30.440  0.00  0.00     0     0.00      0     0.0  0.00   0.0   0.120   0.000   68.1    49   48.2   66.7   9.09  .0756    0.000   203    7    100.0   10 
11/26/20  4:00a   46.9   47.7   46.9    95   45.5   0.0   SSW   0.00   2.0   SSW   46.9   47.2   47.2   44.6  30.440  0.00  0.00     0     0.00      0     0.0  0.00   0.0   0.126   0.000   68.1    49   48.2   66.7   9.09  .0756    0.000   204    7    100.0   10 
11/26/20  4:10a   46.3   46.9   46.3    95   44.9   0.0   SSW   0.00   2.0   SSW   46.3   46.6   46.6   43.9  30.441  0.00  0.00     0     0.00      0     0.0  0.00   0.0   0.130   0.000   68.0    49   48.1   66.6   9.09  .0757    0.000   204    7    100.0   10 
11/26/20  4:20a   46.0   46.3   46.0    95   44.6   0.0   SSE   0.00   1.0   SSE   46.0   46.3   46.3   43.6  30.441  0.00  0.00     0     0.00      0     0.0  0.00   0.0   0.132   0.000   68.0    49   48.1   66.6   9.09  .0757    0.000   202    7    100.0   10 
11/26/20  4:30a   45.6   46.0   45.6    95   44.3   0.0   SSE   0.00   2.0   SSE   45.6   45.9   45.9   43.2  30.445  0.00  0.00     0     0.00      0     0.0  0.00   0.0   0.135   0.000   68.0    49   48.1   66.6   9.09  .0757    0.000   200    7    100.0   10 
11/26/20  4:40a   45.6   45.7   45.6    95   44.3   1.0   SSE   0.17   2.0   SSE   45.6   45.9   45.9   43.2  30.444  0.00  0.00     0     0.00      0     0.0  0.00   0.0   0.135   0.000   67.9    49   48.0   66.5   9.09  .0757    0.000   203    7    100.0   10 
11/26/20  4:50a   45.4   45.6   45.4    95   44.1   1.0    SE   0.17   3.0    SE   45.4   45.6   45.6   42.9  30.448  0.00  0.00     0     0.00      0     0.0  0.00   0.0   0.136   0.000   67.9    49   48.0   66.5   9.09  .0757    0.000   202    7    100.0   10 
11/26/20  5:00a   45.5   45.5   45.3    96   44.4   0.0   ESE   0.00   2.0    SE   45.5   45.8   45.8   43.1  30.450  0.00  0.00     0     0.00      0     0.0  0.00   0.0   0.135   0.000   67.9    49   48.0   66.5   9.09  .0757    0.000   203    7    100.0   10 
11/26/20  5:10a   45.4   45.6   45.3    95   44.1   1.0   ESE   0.17   2.0   ESE   45.4   45.6   45.6   42.9  30.450  0.00  0.00     0     0.00      0     0.0  0.00   0.0   0.136   0.000   67.8    49   47.9   66.4   9.09  .0757    0.000   202    7    100.0   10 
11/26/20  5:20a   45.4   45.4   45.3    96   44.3   1.0    SE   0.17   3.0    SE   45.4   45.7   45.7   43.0  30.451  0.00  0.00     0     0.00      0     0.0  0.00   0.0   0.136   0.000   67.8    49   47.9   66.4   9.09  .0757    0.000   202    7    100.0   10 
11/26/20  5:30a   45.1   45.4   45.1    95   43.8   1.0   SSE   0.17   3.0   SSE   45.1   45.3   45.3   42.6  30.453  0.00  0.00     0     0.00      0     0.0  0.00   0.0   0.138   0.000   67.7    49   47.8   66.3   9.10  .0757    0.000   203    7    100.0   10 
11/26/20  5:40a   45.1   45.2   45.0    96   44.0   1.0    SE   0.17   4.0   SSE   45.1   45.3   45.3   42.6  30.459  0.00  0.00     0     0.00      0     0.0  0.00   0.0   0.138   0.000   67.7    49   47.8   66.3   9.10  .0758    0.000   202    7    100.0   10 
11/26/20  5:50a   45.1   45.2   45.1    96   44.0   1.0    SE   0.17   2.0    SE   45.1   45.3   45.3   42.6  30.460  0.00  0.00     0     0.00      0     0.0  0.00   0.0   0.138   0.000   67.8    50   48.5   66.5   9.29  .0757    0.000   202    7    100.0   10 
11/26/20  6:00a   45.0   45.2   45.0    95   43.7   1.0    SE   0.17   2.0    SE   45.0   45.2   45.2   42.5  30.461  0.00  0.00     0     0.00      0     0.0  0.00   0.0   0.139   0.000   68.1    50   48.8   66.8   9.29  .0757    0.000   200    7    100.0   10 
11/26/20  6:10a   45.0   45.0   44.9    96   43.9   1.0    SE   0.17   3.0    SE   45.0   45.2   45.2   42.5  30.461  0.00  0.00     0     0.00      0     0.0  0.00   0.0   0.139   0.000   68.4    50   49.0   67.1   9.28  .0756    0.000   201    7    100.0   10 
11/26/20  6:20a   45.3   45.4   45.0    96   44.2   1.0    SE   0.17   3.0    SE   45.3   45.6   45.6   42.9  30.461  0.00  0.00     0     0.00      0     0.0  0.00   0.0   0.137   0.000   68.7    50   49.3   67.3   9.28  .0756    0.000   200    7    100.0   10 
11/26/20  6:30a   45.5   45.5   45.3    96   44.4   1.0   SSE   0.17   4.0   SSE   45.5   45.8   45.8   43.1  30.464  0.00  0.00     0     0.00      0     0.0  0.00   0.0   0.135   0.000   68.9    50   49.5   67.5   9.27  .0756    0.000   203    7    100.0   10 
11/26/20  6:40a   45.6   45.7   45.5    96   44.5   1.0     S   0.17   4.0   SSE   45.6   45.9   45.9   43.2  30.468  0.00  0.00     0     0.00      0     0.0  0.00   0.0   0.135   0.000   69.1    50   49.7   67.7   9.27  .0755    0.000   205    7    100.0   10 
11/26/20  6:50a   45.5   45.7   45.5    96   44.4   0.0   ---   0.00   0.0   ---   45.5   45.8   45.8   43.1  30.471  0.00  0.00     0     0.00      0     0.0  0.00   0.0   0.135   0.000   69.4    50   49.9   67.9   9.26  .0755    0.000   203    7    100.0   10 
11/26/20  7:00a   45.6   45.8   45.5    96   44.5   1.0   SSE   0.17   4.0   SSE   45.6   45.9   45.9   43.2  30.469  0.00  0.00     0     0.00      0     0.0  0.00   0.0   0.135   0.000   69.6    50   50.1   68.0   9.26  .0754    0.000   203    7    100.0   10 
11/26/20  7:10a   45.6   45.7   45.5    96   44.5   1.0    SE   0.17   3.0    SE   45.6   45.9   45.9   43.2  30.468  0.00  0.00     0     0.00      0     0.0  0.00   0.0   0.135   0.000   69.9    50   50.4   68.2   9.25  .0754    0.000   204    7    100.0   10 
11/26/20  7:20a   46.0   46.0   45.5    96   44.9   2.0     S   0.33   5.0     S   46.0   46.3   46.3   43.6  30.472  0.00  0.00     0     0.00      0     0.0  0.00   0.0   0.132   0.000   69.9    50   50.4   68.2   9.25  .0754    0.000   201    7    100.0   10 
11/26/20  7:30a   45.8   46.0   45.8    96   44.7   2.0    SE   0.33   5.0     S   45.8   46.1   46.1   43.5  30.469  0.00  0.00     1     0.01      5     0.0  0.00   0.0   0.133   0.000   69.9    50   50.4   68.2   9.25  .0754    0.000   204    7    100.0   10 
11/26/20  7:40a   45.9   46.0   45.8    96   44.8   1.0     S   0.17   3.0   SSE   45.9   46.2   46.2   43.7  30.474  0.00  0.00     6     0.09      7     0.0  0.00   0.0   0.133   0.000   69.8    50   50.3   68.2   9.25  .0754    0.000   203    7    100.0   10 
11/26/20  7:50a   46.1   46.1   45.9    96   45.0   0.0   SSE   0.00   2.0   SSE   46.1   46.4   46.4   44.0  30.476  0.00  0.00    10     0.14     12     0.0  0.00   0.0   0.131   0.000   69.6    50   50.1   68.0   9.26  .0755    0.000   203    7    100.0   10 
11/26/20  8:00a   46.0   46.1   45.9    96   44.9   0.0   SSE   0.00   3.0   SSE   46.0   46.3   46.3   44.0  30.483  0.00  0.00    17     0.24     21     0.0  0.00   0.0   0.132   0.000   69.6    50   50.1   68.0   9.26  .0755    0.000   201    7    100.0   10 
11/26/20  8:10a   45.9   46.0   45.9    96   44.8   0.0   SSE   0.00   2.0   SSE   45.9   46.2   46.2   44.2  30.484  0.00  0.00    27     0.39     30     0.0  0.00   0.0   0.133   0.000   69.5    50   50.0   67.9   9.26  .0755    0.000   202    7    100.0   10 
11/26/20  8:20a   45.9   46.0   45.9    96   44.8   1.0    SE   0.17   4.0   ESE   45.9   46.2   46.2   44.4  30.487  0.00  0.00    36     0.52     47     0.0  0.00   0.0   0.133   0.000   69.5    50   50.0   67.9   9.26  .0755    0.000   203    7    100.0   10 
11/26/20  8:30a   46.4   46.4   45.9    96   45.3   1.0   ESE   0.17   3.0    SE   46.4   46.7   46.7   45.4  30.487  0.00  0.00    57     0.82     60     0.0  0.00   0.0   0.129   0.000   69.5    50   50.0   67.9   9.26  .0755    0.000   204    7    100.0   10 
11/26/20  8:40a   46.4   46.5   46.3    96   45.3   1.0    SE   0.17   4.0   ESE   46.4   46.7   46.7   45.4  30.491  0.00  0.00    56     0.80     62     0.0  0.00   0.0   0.129   0.000   69.5    50   50.0   67.9   9.26  .0755    0.000   203    7    100.0   10 
11/26/20  8:50a   46.6   46.6   46.3    96   45.5   1.0    SE   0.17   4.0   ESE   46.6   46.9   46.9   47.7  30.492  0.00  0.00    64     0.92     72     0.0  0.00   0.0   0.128   0.000   69.5    50   50.0   67.9   9.26  .0755    0.000   204    7    100.0   10 
11/26/20  9:00a   46.8   46.8   46.5    96   45.7   1.0    SE   0.17   3.0    SE   46.8   47.1   47.1   47.8  30.497  0.00  0.00    62     0.89     70     0.0  0.00   0.0   0.126   0.000   69.5    50   50.0   67.9   9.26  .0755    0.001   203    7    100.0   10 
11/26/20  9:10a   46.7   46.8   46.7    96   45.6   1.0     S   0.17   4.0     S   46.7   47.0   47.0   47.3  30.499  0.00  0.00    53     0.76     60     0.0  0.00   0.0   0.127   0.000   69.5    50   50.0   67.9   9.26  .0755    0.000   202    7    100.0   10 
11/26/20  9:20a   47.0   47.0   46.7    96   45.9   1.0   SSE   0.17   4.0   SSE   47.0   47.3   47.3   48.2  30.499  0.00  0.00    67     0.96     72     0.0  0.00   0.0   0.125   0.000   69.5    50   50.0   67.9   9.26  .0755    0.000   203    7    100.0   10 
11/26/20  9:30a   47.2   47.2   47.0    96   46.1   1.0    SE   0.17   4.0   ESE   47.2   47.6   47.6   48.9  30.498  0.00  0.00    77     1.10     86     0.0  0.00   0.0   0.124   0.000   69.5    51   50.6   68.0   9.46  .0755    0.000   204    7    100.0   10 
11/26/20  9:40a   47.2   47.3   47.2    96   46.1   1.0   ESE   0.17   4.0    SE   47.2   47.6   47.6   49.2  30.502  0.00  0.00    88     1.26     91     0.0  0.00   0.0   0.124   0.000   69.6    50   50.1   68.0   9.26  .0755    0.000   204    7    100.0   10 
11/26/20  9:50a   47.5   47.6   47.2    96   46.4   1.0    SE   0.17   4.0    SE   47.5   47.9   47.9   49.9  30.504  0.00  0.00   100     1.43    105     0.3  0.02   0.5   0.122   0.000   69.6    50   50.1   68.0   9.26  .0755    0.000   203    7    100.0   10 
11/26/20 10:00a   47.4   47.5   47.2    96   46.3   2.0     S   0.33   5.0     S   47.4   47.8   47.8   50.1  30.509  0.00  0.00   110     1.58    114     0.5  0.04   0.5   0.122   0.000   69.6    50   50.1   68.0   9.26  .0755    0.001   202    7    100.0   10 
11/26/20 10:10a   47.8   47.8   47.4    96   46.7   1.0   SSE   0.17   4.0   SSE   47.8   48.2   48.2   50.9  30.510  0.00  0.00   124     1.78    128     0.6  0.04   0.6   0.119   0.000   69.6    50   50.1   68.0   9.26  .0755    0.000   198    7    100.0   10 
11/26/20 10:20a   48.3   48.3   47.8    96   47.2   1.0    SE   0.17   4.0    SE   48.3   48.8   48.8   51.5  30.511  0.00  0.00   125     1.79    132     0.6  0.04   0.6   0.116   0.000   69.6    50   50.1   68.0   9.26  .0755    0.000   204    7    100.0   10 
11/26/20 10:30a   48.9   48.9   48.3    96   47.8   4.0   SSW   0.67   7.0    SE   47.6   49.4   48.1   50.3  30.513  0.00  0.00   112     1.61    116     0.6  0.04   0.7   0.112   0.000   69.6    50   50.1   68.0   9.26  .0756    0.000   203    7    100.0   10 
11/26/20 10:40a   49.1   49.1   48.9    96   48.0   5.0     S   0.83   9.0   SSE   47.1   49.6   47.6   49.3  30.514  0.00  0.00    99     1.42    107     0.7  0.05   0.7   0.110   0.000   69.6    50   50.1   68.0   9.26  .0756    0.000   203    7    100.0   10 
11/26/20 10:50a   49.2   49.2   49.1    96   48.1   2.0   SSE   0.33   6.0   SSE   49.2   49.7   49.7   52.2  30.513  0.00  0.00   124     1.78    142     0.8  0.06   0.8   0.110   0.000   69.6    50   50.1   68.0   9.26  .0756    0.000   203    7    100.0   10 
11/26/20 11:00a   49.3   49.3   49.1    96   48.2   3.0     S   0.50   7.0   SSE   48.9   49.8   49.4   52.5  30.512  0.00  0.00   143     2.05    151     0.8  0.06   0.8   0.109   0.000   69.6    50   50.1   68.0   9.26  .0755    0.002   204    7    100.0   10 
11/26/20 11:10a   49.7   49.7   49.3    96   48.6   3.0   SSW   0.50   7.0   SSE   49.3   50.2   49.8   54.1  30.505  0.00  0.00   182     2.61    218     0.9  0.06   0.9   0.106   0.000   69.7    50   50.2   68.1   9.26  .0755    0.000   202    7    100.0   10 
11/26/20 11:20a   49.9   49.9   49.6    95   48.5   3.0   SSW   0.50   7.0     S   49.6   50.4   50.1   55.6  30.503  0.00  0.00   224     3.21    295     1.0  0.07   1.0   0.105   0.000   69.7    50   50.2   68.1   9.26  .0755    0.000   203    7    100.0   10 
11/26/20 11:30a   50.0   50.1   49.8    95   48.6   2.0    SE   0.33   6.0   SSW   50.0   50.5   50.5   55.8  30.501  0.00  0.00   219     3.14    288     1.0  0.07   1.0   0.104   0.000   69.9    50   50.4   68.2   9.25  .0755    0.000   203    7    100.0   10 
11/26/20 11:40a   50.7   50.7   50.0    95   49.3   1.0    SE   0.17   3.0     W   50.7   51.1   51.1   58.3  30.495  0.00  0.00   289     4.14    381     1.2  0.09   1.3   0.099   0.000   70.0    50   50.5   68.3   9.25  .0754    0.000   203    7    100.0   10 
11/26/20 11:50a   50.6   50.8   50.6    94   48.9   2.0     S   0.33   6.0   SSW   50.6   51.0   51.0   58.4  30.495  0.00  0.00   301     4.31    397     1.2  0.09   1.3   0.100   0.000   70.2    50   50.7   68.6   9.25  .0754    0.000   202    7    100.0   10 
11/26/20 12:00p   50.8   50.8   50.5    94   49.1   3.0    SW   0.50   5.0     S   50.6   51.2   51.0   60.0  30.491  0.00  0.00   378     5.42    455     1.3  0.09   1.3   0.099   0.000   70.3    50   50.8   68.7   9.25  .0754    0.005   203    7    100.0   10 
11/26/20 12:10p   50.7   50.8   50.6    94   49.0   3.0    SW   0.50   6.0    SW   50.5   51.1   50.9   57.6  30.491  0.00  0.00   273     3.91    299     1.1  0.08   1.2   0.099   0.000   70.4    50   50.9   68.8   9.25  .0754    0.000   203    7    100.0   10 
11/26/20 12:20p   50.4   50.8   50.4    93   48.5   4.0    SW   0.67   6.0   SSE   49.3   50.8   49.7   55.2  30.487  0.00  0.00   231     3.31    258     0.9  0.06   1.0   0.101   0.000   70.4    50   50.9   68.8   9.25  .0753    0.000   204    7    100.0   10 
11/26/20 12:30p   50.5   50.5   50.3    93   48.6   4.0    SW   0.67   6.0    SW   49.5   50.9   49.9   55.2  30.482  0.00  0.00   225     3.23    253     0.9  0.06   1.0   0.101   0.000   70.5    50   51.0   68.9   9.25  .0753    0.000   203    7    100.0   10 
11/26/20 12:40p   50.5   50.5   50.3    93   48.6   4.0    SW   0.67   6.0   SSE   49.5   50.9   49.9   53.7  30.482  0.00  0.00   177     2.54    183     0.8  0.06   0.8   0.101   0.000   70.5    50   51.0   68.9   9.25  .0753    0.000   203    7    100.0   10 
11/26/20 12:50p   50.5   50.5   50.4    93   48.6   4.0    SW   0.67   7.0   SSE   49.5   50.9   49.9   54.1  30.478  0.00  0.00   190     2.72    197     0.9  0.06   0.9   0.101   0.000   70.5    50   51.0   68.9   9.25  .0753    0.000   200    7    100.0   10 
11/26/20  1:00p   50.4   50.5   50.3    93   48.5   4.0    SW   0.67   6.0   SSE   49.3   50.8   49.7   53.1  30.477  0.00  0.00   161     2.31    169     0.8  0.06   0.8   0.101   0.000   70.5    50   51.0   68.9   9.25  .0753    0.004   204    7    100.0   10 
11/26/20  1:10p   50.4   50.5   50.3    93   48.5   4.0    SW   0.67   7.0    SW   49.3   50.8   49.7   52.6  30.476  0.00  0.00   144     2.06    149     0.8  0.06   0.8   0.101   0.000   70.5    50   51.0   68.9   9.25  .0753    0.000   202    7    100.0   10 
11/26/20  1:20p   50.1   50.5   50.1    92   47.9   4.0    SW   0.67   7.0   SSE   49.0   50.5   49.4   51.9  30.476  0.00  0.00   132     1.89    141     0.7  0.05   0.7   0.103   0.000   70.5    50   51.0   68.9   9.25  .0753    0.000   204    7    100.0   10 
11/26/20  1:30p   50.4   50.4   50.1    93   48.5   4.0    SW   0.67   6.0    SW   49.3   50.8   49.7   52.2  30.472  0.00  0.00   130     1.86    139     0.7  0.05   0.7   0.101   0.000   70.5    50   51.0   68.9   9.25  .0753    0.000   204    7    100.0   10 
11/26/20  1:40p   50.3   50.4   50.2    93   48.4   3.0    SW   0.50   5.0   SSE   50.0   50.7   50.4   53.7  30.471  0.00  0.00   152     2.18    160     0.6  0.04   0.7   0.102   0.000   70.5    50   51.0   68.9   9.25  .0753    0.000   204    7    100.0   10 
11/26/20  1:50p   50.3   50.4   50.3    92   48.1   4.0   WSW   0.67   7.0   WSW   49.2   50.7   49.6   53.4  30.471  0.00  0.00   166     2.38    171     0.6  0.04   0.6   0.102   0.000   70.5    50   51.0   68.9   9.25  .0753    0.000   203    7    100.0   10 
11/26/20  2:00p   50.5   50.5   50.3    92   48.3   3.0    SW   0.50   6.0     W   50.3   50.8   50.6   54.4  30.469  0.00  0.00   166     2.38    174     0.6  0.04   0.6   0.101   0.000   70.6    50   51.1   69.1   9.25  .0753    0.003   204    7    100.0   10 
11/26/20  2:10p   50.2   50.4   50.1    92   48.0   4.0     W   0.67   7.0     W   49.1   50.6   49.5   52.4  30.470  0.00  0.00   136     1.95    148     0.4  0.03   0.5   0.103   0.000   70.6    50   51.1   69.1   9.25  .0753    0.000   202    7    100.0   10 
11/26/20  2:20p   50.1   50.3   50.1    92   47.9   4.0     W   0.67   6.0     W   49.0   50.5   49.4   51.9  30.468  0.00  0.00   122     1.75    130     0.0  0.00   0.0   0.103   0.000   70.7    51   51.7   69.3   9.44  .0752    0.000   204    7    100.0   10 
11/26/20  2:30p   50.4   50.4   50.1    92   48.2   3.0     W   0.50   6.0   WNW   50.1   50.7   50.4   52.4  30.464  0.00  0.00   106     1.52    113     0.0  0.00   0.0   0.101   0.000   70.8    51   51.8   69.4   9.43  .0752    0.000   203    7    100.0   10 
11/26/20  2:40p   50.3   50.4   50.1    93   48.4   3.0   WNW   0.50   4.0   WNW   50.0   50.7   50.4   52.2  30.463  0.00  0.00    98     1.40    111     0.0  0.00   0.0   0.102   0.000   71.0    51   52.0   69.7   9.43  .0752    0.000   204    7    100.0   10 
11/26/20  2:50p   50.1   50.4   50.1    92   47.9   3.0   WNW   0.50   4.0   WNW   49.8   50.5   50.2   51.2  30.461  0.00  0.00    76     1.09     79     0.0  0.00   0.0   0.103   0.000   71.1    51   52.0   69.8   9.43  .0751    0.000   205    7    100.0   10 
11/26/20  3:00p   50.3   50.3   50.1    92   48.1   2.0   NNW   0.33   3.0   WNW   50.3   50.7   50.7   51.2  30.465  0.00  0.00    63     0.90     67     0.0  0.00   0.0   0.102   0.000   71.2    51   52.1   70.0   9.43  .0751    0.002   204    7    100.0   10 
11/26/20  3:10p   50.3   50.4   50.3    92   48.1   1.0   NNE   0.17   3.0   NNE   50.3   50.7   50.7   50.4  30.463  0.00  0.00    42     0.60     49     0.0  0.00   0.0   0.102   0.000   71.2    51   52.1   70.0   9.43  .0751    0.000   198    7    100.0   10 
11/26/20  3:20p   50.2   50.3   50.2    92   48.0   1.0   NNE   0.17   3.0   NNE   50.2   50.6   50.6   50.0  30.463  0.00  0.00    36     0.52     37     0.0  0.00   0.0   0.103   0.000   71.3    51   52.2   70.1   9.42  .0751    0.000   201    7    100.0   10 
11/26/20  3:30p   50.3   50.4   50.2    92   48.1   0.0   NNE   0.00   1.0   NNE   50.3   50.7   50.7   50.2  30.461  0.00  0.00    35     0.50     37     0.0  0.00   0.0   0.102   0.000   71.3    51   52.2   70.1   9.42  .0751    0.000   204    7    100.0   10 
11/26/20  3:40p   50.3   50.4   50.3    92   48.1   1.0   NNW   0.17   3.0   NNE   50.3   50.7   50.7   50.2  30.462  0.00  0.00    35     0.50     37     0.0  0.00   0.0   0.102   0.000   71.3    51   52.2   70.1   9.42  .0751    0.000   203    7    100.0   10 
11/26/20  3:50p   50.3   50.4   50.3    92   48.1   0.0   NNW   0.00   1.0   NNW   50.3   50.7   50.7   50.2  30.460  0.00  0.00    33     0.47     35     0.0  0.00   0.0   0.102   0.000   71.4    51   52.3   70.3   9.42  .0751    0.000   201    7    100.0   10 
11/26/20  4:00p   50.3   50.4   50.3    92   48.1   1.0   NNW   0.17   2.0   NNW   50.3   50.7   50.7   49.8  30.459  0.00  0.00    25     0.36     30     0.0  0.00   0.0   0.102   0.000   71.4    51   52.3   70.3   9.42  .0751    0.001   203    7    100.0   10 
11/26/20  4:10p   50.1   50.3   50.1    92   47.9   1.0   NNW   0.17   2.0   NNW   50.1   50.5   50.5   49.2  30.457  0.00  0.00    17     0.24     19     0.0  0.00   0.0   0.103   0.000   71.4    51   52.3   70.3   9.42  .0751    0.000   202    7    100.0   10 
11/26/20  4:20p   50.1   50.2   50.1    92   47.9   0.0   NNW   0.00   1.0   NNW   50.1   50.5   50.5   48.2  30.458  0.00  0.00    14     0.20     16     0.0  0.00   0.0   0.103   0.000   71.4    51   52.3   70.3   9.42  .0751    0.000   203    7    100.0   10 
11/26/20  4:30p   50.0   50.1   49.9    92   47.8   0.0   ---   0.00   0.0   ---   50.0   50.4   50.4   48.0  30.457  0.00  0.00     9     0.13     11     0.0  0.00   0.0   0.104   0.000   71.4    51   52.3   70.3   9.42  .0751    0.000   200    7    100.0   10 
11/26/20  4:40p   49.7   50.0   49.7    92   47.5   0.0   ---   0.00   0.0   ---   49.7   50.1   50.1   47.6  30.458  0.00  0.00     2     0.03      5     0.0  0.00   0.0   0.106   0.000   71.4    50   51.8   70.2   9.25  .0751    0.000   203    7    100.0   10 
11/26/20  4:50p   49.5   49.7   49.5    92   47.3   0.0   ---   0.00   0.0   ---   49.5   49.9   49.9   47.3  30.456  0.00  0.00     0     0.00      0     0.0  0.00   0.0   0.108   0.000   71.2    50   51.6   69.9   9.25  .0751    0.000   204    7    100.0   10 
11/26/20  5:00p   49.4   49.5   49.3    92   47.2   0.0   ---   0.00   0.0   ---   49.4   49.8   49.8   47.2  30.453  0.00  0.00     0     0.00      0     0.0  0.00   0.0   0.108   0.000   71.0    51   52.0   69.7   9.43  .0751    0.000   202    7    100.0   10 
11/26/20  5:10p   49.1   49.4   49.1    92   46.9   0.0   ---   0.00   0.0   ---   49.1   49.5   49.5   46.9  30.455  0.00  0.00     0     0.00      0     0.0  0.00   0.0   0.110   0.000   70.9    51   51.9   69.6   9.43  .0752    0.000   202    7    100.0   10 
11/26/20  5:20p   48.9   49.2   48.9    92   46.7   0.0   ---   0.00   0.0   ---   48.9   49.3   49.3   46.7  30.452  0.00  0.00     0     0.00      0     0.0  0.00   0.0   0.112   0.000   70.9    51   51.9   69.6   9.43  .0752    0.000   204    7    100.0   10 
11/26/20  5:30p   48.7   48.9   48.7    92   46.5   0.0   ---   0.00   0.0   ---   48.7   49.1   49.1   46.5  30.453  0.00  0.00     0     0.00      0     0.0  0.00   0.0   0.113   0.000   70.8    51   51.8   69.4   9.43  .0752    0.000   204    7    100.0   10 
11/26/20  5:40p   48.5   48.7   48.5    92   46.3   0.0   ---   0.00   0.0   ---   48.5   48.8   48.8   46.2  30.453  0.00  0.00     0     0.00      0     0.0  0.00   0.0   0.115   0.000   70.9    51   51.9   69.6   9.43  .0752    0.000   202    7    100.0   10 
11/26/20  5:50p   48.3   48.5   48.3    92   46.1   0.0   ---   0.00   0.0   ---   48.3   48.6   48.6   46.0  30.452  0.00  0.00     0     0.00      0     0.0  0.00   0.0   0.116   0.000   70.9    51   51.9   69.6   9.43  .0752    0.000   202    7    100.0   10 
11/26/20  6:00p   48.2   48.4   48.2    93   46.3   0.0   ---   0.00   0.0   ---   48.2   48.5   48.5   45.9  30.454  0.00  0.00     0     0.00      0     0.0  0.00   0.0   0.117   0.000   70.9    51   51.9   69.6   9.43  .0752    0.000   204    7    100.0   10 
11/26/20  6:10p   47.8   48.2   47.8    92   45.6   0.0   ---   0.00   0.0   ---   47.8   48.1   48.1   45.4  30.448  0.00  0.00     0     0.00      0     0.0  0.00   0.0   0.119   0.000   70.9    51   51.9   69.6   9.43  .0751    0.000   202    7    100.0   10 
11/26/20  6:20p   47.1   47.8   47.1    92   44.9   0.0   ---   0.00   0.0   ---   47.1   47.3   47.3   44.6  30.445  0.00  0.00     0     0.00      0     0.0  0.00   0.0   0.124   0.000   70.8    51   51.8   69.4   9.43  .0752    0.000   204    7    100.0   10 
11/26/20  6:30p   47.2   47.2   47.0    93   45.3   0.0   ---   0.00   0.0   ---   47.2   47.5   47.5   44.8  30.443  0.00  0.00     0     0.00      0     0.0  0.00   0.0   0.124   0.000   70.8    51   51.8   69.4   9.43  .0751    0.000   203    7    100.0   10 
11/26/20  6:40p   46.5   47.3   46.5    92   44.3   0.0   ---   0.00   0.0   ---   46.5   46.7   46.7   44.0  30.439  0.00  0.00     0     0.00      0     0.0  0.00   0.0   0.128   0.000   70.8    51   51.8   69.4   9.43  .0751    0.000   205    7    100.0   10 
11/26/20  6:50p   46.2   46.5   46.2    93   44.3   0.0   ---   0.00   0.0   ---   46.2   46.4   46.4   43.7  30.439  0.00  0.00     0     0.00      0     0.0  0.00   0.0   0.131   0.000   70.7    51   51.7   69.3   9.44  .0752    0.000   204    7    100.0   10 
11/26/20  7:00p   45.8   46.2   45.7    93   43.9   0.0   ESE   0.00   4.0    SE   45.8   46.0   46.0   43.3  30.440  0.00  0.00     0     0.00      0     0.0  0.00   0.0   0.133   0.000   70.7    51   51.7   69.3   9.44  .0752    0.000   203    7    100.0   10 
11/26/20  7:10p   45.6   45.8   45.5    93   43.7   3.0     E   0.50   6.0   ESE   44.7   45.8   44.9   42.2  30.442  0.00  0.00     0     0.00      0     0.0  0.00   0.0   0.135   0.000   70.5    50   51.0   68.9   9.25  .0752    0.000   201    7    100.0   10 
11/26/20  7:20p   45.6   45.6   45.5    93   43.7   3.0   ESE   0.50   7.0   ESE   44.7   45.8   44.9   42.2  30.439  0.00  0.00     0     0.00      0     0.0  0.00   0.0   0.135   0.000   70.3    51   51.3   68.8   9.44  .0752    0.000   203    7    100.0   10 
11/26/20  7:30p   45.6   45.7   45.5    94   44.0   4.0   ESE   0.67   9.0     E   43.8   45.8   44.0   41.3  30.436  0.00  0.00     0     0.00      0     0.0  0.00   0.0   0.135   0.000   70.1    51   51.1   68.5   9.45  .0753    0.000   202    7    100.0   10 
11/26/20  7:40p   45.7   45.7   45.6    94   44.1   4.0   ESE   0.67   8.0   ESE   43.9   45.9   44.1   41.4  30.436  0.00  0.00     0     0.00      0     0.0  0.00   0.0   0.134   0.000   70.0    51   51.0   68.4   9.45  .0753    0.000   204    7    100.0   10 
11/26/20  7:50p   45.7   45.8   45.6    94   44.1   3.0   ESE   0.50   7.0     E   44.8   45.9   45.0   42.3  30.434  0.00  0.00     0     0.00      0     0.0  0.00   0.0   0.134   0.000   69.9    51   50.9   68.3   9.45  .0753    0.000   203    7    100.0   10 
11/26/20  8:00p   45.7   45.7   45.6    94   44.1   4.0   ESE   0.67   9.0   ESE   43.9   45.9   44.1   41.4  30.434  0.00  0.00     0     0.00      0     0.0  0.00   0.0   0.134   0.000   70.0    51   51.0   68.4   9.45  .0753    0.000   204    7    100.0   10 
11/26/20  8:10p   45.7   45.7   45.6    94   44.1   4.0   ESE   0.67   8.0    SE   43.9   45.9   44.1   41.4  30.432  0.00  0.00     0     0.00      0     0.0  0.00   0.0   0.134   0.000   70.0    51   51.0   68.4   9.45  .0753    0.000   204    7    100.0   10 
11/26/20  8:20p   45.6   45.7   45.6    95   44.3   5.0   ESE   0.83   9.0    SE   43.0   45.9   43.3   40.6  30.430  0.00  0.00     0     0.00      0     0.0  0.00   0.0   0.135   0.000   70.0    51   51.0   68.4   9.45  .0753    0.000   203    7    100.0   10 
11/26/20  8:30p   45.5   45.6   45.5    95   44.2   5.0   ESE   0.83  10.0    SE   42.9   45.8   43.2   40.5  30.429  0.00  0.00     0     0.00      0     0.0  0.00   0.0   0.135   0.000   69.9    51   50.9   68.3   9.45  .0753    0.000   204    7    100.0   10 
11/26/20  8:40p   45.4   45.5   45.4    95   44.1   5.0   ESE   0.83   9.0   ESE   42.8   45.6   43.0   40.3  30.427  0.00  0.00     0     0.00      0     0.0  0.00   0.0   0.136   0.000   69.9    51   50.9   68.3   9.45  .0753    0.000   205    7    100.0   10 
11/26/20  8:50p   45.2   45.4   45.2    95   43.9   5.0   ESE   0.83   9.0   ESE   42.5   45.4   42.7   40.0  30.430  0.00  0.00     0     0.00      0     0.0  0.00   0.0   0.137   0.000   69.9    51   50.9   68.3   9.45  .0753    0.000   204    7    100.0   10 
11/26/20  9:00p   45.1   45.2   45.1    95   43.8   5.0   ESE   0.83  12.0     E   42.4   45.3   42.6   39.9  30.428  0.00  0.00     0     0.00      0     0.0  0.00   0.0   0.138   0.000   69.9    50   50.4   68.2   9.25  .0753    0.000   202    7    100.0   10 
11/26/20  9:10p   44.8   45.1   44.8    95   43.5   5.0   ESE   0.83  10.0   SSE   42.1   45.0   42.3   39.6  30.426  0.00  0.00     0     0.00      0     0.0  0.00   0.0   0.140   0.000   69.8    50   50.3   68.2   9.25  .0753    0.000   204    7    100.0   10 
11/26/20  9:20p   44.7   44.9   44.7    95   43.4   6.0   ESE   1.00  12.0     E   41.3   44.9   41.5   38.8  30.423  0.00  0.00     0     0.00      0     0.0  0.00   0.0   0.141   0.000   69.7    50   50.2   68.1   9.26  .0753    0.000   204    7    100.0   10 
11/26/20  9:30p   44.5   44.7   44.5    95   43.2   6.0   ESE   1.00  11.0     E   41.1   44.7   41.3   38.6  30.426  0.00  0.00     0     0.00      0     0.0  0.00   0.0   0.142   0.000   69.7    50   50.2   68.1   9.26  .0753    0.000   201    7    100.0   10 
11/26/20  9:40p   44.4   44.6   44.4    95   43.1   6.0     E   1.00  10.0   ESE   41.0   44.6   41.2   38.5  30.426  0.00  0.00     0     0.00      0     0.0  0.00   0.0   0.143   0.000   69.7    50   50.2   68.1   9.26  .0753    0.000   202    7    100.0   10 
11/26/20  9:50p   44.3   44.4   44.2    95   43.0   6.0     E   1.00  10.0     E   40.9   44.5   41.1   38.3  30.428  0.00  0.00     0     0.00      0     0.0  0.00   0.0   0.144   0.000   69.6    50   50.1   68.0   9.26  .0753    0.000   203    7    100.0   10 
11/26/20 10:00p   44.2   44.3   44.2    95   42.9   6.0     E   1.00  11.0     E   40.7   44.4   40.9   38.1  30.423  0.00  0.00     0     0.00      0     0.0  0.00   0.0   0.144   0.000   69.5    50   50.0   67.9   9.26  .0753    0.000   202    7    100.0   10 
Email: AdamSPAM@StormwatchersRetreat.com (To send me email remove the word 'SPAM' from my email address.)